Time;durP1;ratioP1;P1;durP2;ratioP2;P2;SDS_P1;SDS_P2;PMS_P1;PMS_P2;Temp;Humidity;BMP_temperature;BMP_pressure;BME280_temperature;BME280_humidity;BME280_pressure;Samples;Min_cycle;Max_cycle;Signal;HPM_P1;HPM_P2
2021/11/24 00:02:10;;;;;;;13.35;3.70;;;;;;;-7.97;84.34;99752.50;4847698;29;20057;-70
2021/11/24 00:04:35;;;;;;;9.23;2.97;;;;;;;-7.62;84.75;99807.69;4849043;29;20057;-71
2021/11/24 00:07:01;;;;;;;14.73;2.88;;;;;;;-7.78;84.38;99786.19;4848250;29;20057;-72
2021/11/24 00:09:27;;;;;;;8.63;2.60;;;;;;;-7.65;84.68;99807.75;4847222;29;20053;-72
2021/11/24 00:11:53;;;;;;;13.35;3.58;;;;;;;-8.04;84.89;99736.91;4816463;29;20064;-72
2021/11/24 00:14:19;;;;;;;10.77;3.08;;;;;;;-7.62;84.32;99812.94;4817189;29;20058;-70
2021/11/24 00:16:44;;;;;;;11.98;3.28;;;;;;;-7.71;84.96;99797.41;4831409;29;20547;-72
2021/11/24 00:19:10;;;;;;;10.75;2.72;;;;;;;-7.84;84.54;99781.06;4816468;29;20058;-70
2021/11/24 00:21:36;;;;;;;13.30;3.22;;;;;;;-7.67;85.34;99812.19;4863931;29;20057;-70
2021/11/24 00:24:02;;;;;;;13.55;3.92;;;;;;;-7.68;85.19;99802.56;4818153;29;20052;-69
2021/11/24 00:26:28;;;;;;;11.50;3.13;;;;;;;-7.72;85.00;99805.31;4831968;29;20160;-72
2021/11/24 00:28:54;;;;;;;11.00;3.10;;;;;;;-7.80;85.57;99792.34;4847249;29;20093;-71
2021/11/24 00:31:20;;;;;;;10.48;2.97;;;;;;;-8.08;85.68;99761.47;4801473;29;20054;-71
2021/11/24 00:33:45;;;;;;;11.93;2.97;;;;;;;-7.82;86.13;99799.41;4846644;29;20058;-70
2021/11/24 00:36:11;;;;;;;16.00;3.38;;;;;;;-7.81;85.97;99804.59;4845533;29;20441;-70
2021/11/24 00:38:37;;;;;;;10.05;3.10;;;;;;;-7.90;85.85;99801.31;4863333;29;20105;-71
2021/11/24 00:41:03;;;;;;;10.00;2.67;;;;;;;-7.96;85.73;99797.06;4848977;29;20415;-71
2021/11/24 00:43:29;;;;;;;11.65;3.00;;;;;;;-7.96;86.17;99790.97;4881061;29;20045;-71
2021/11/24 00:45:55;;;;;;;14.50;2.88;;;;;;;-7.93;86.33;99804.00;4849259;29;20647;-72
2021/11/24 00:48:22;;;;;;;9.93;2.65;;;;;;;-8.17;86.08;99766.91;4833994;29;20071;-69
2021/11/24 00:50:48;;;;;;;15.00;2.88;;;;;;;-7.91;85.84;99807.47;4848281;29;20147;-69
2021/11/24 00:53:15;;;;;;;12.70;2.67;;;;;;;-8.05;85.75;99792.88;4865093;29;20059;-69
2021/11/24 00:55:40;;;;;;;9.68;2.45;;;;;;;-7.95;86.07;99805.81;4849044;29;20148;-72
2021/11/24 00:58:06;;;;;;;11.40;3.42;;;;;;;-8.04;86.62;99805.09;4882193;29;20167;-72
2021/11/24 01:00:32;;;;;;;10.00;2.60;;;;;;;-8.18;86.20;99780.91;4833017;29;20057;-70
2021/11/24 01:02:58;;;;;;;9.70;2.30;;;;;;;-8.08;86.60;99792.94;4863680;29;20262;-70
2021/11/24 01:05:24;;;;;;;12.77;3.17;;;;;;;-8.14;86.67;99793.06;4847987;29;20060;-70
2021/11/24 01:07:50;;;;;;;11.02;2.90;;;;;;;-8.29;86.96;99762.78;4864208;29;20053;-71
2021/11/24 01:10:16;;;;;;;13.43;2.97;;;;;;;-8.18;87.01;99786.16;4881373;29;20052;-70
2021/11/24 01:12:44;;;;;;;10.10;2.83;;;;;;;-8.29;86.59;99767.16;4863267;29;20546;-71
2021/11/24 01:15:11;;;;;;;10.77;3.33;;;;;;;-8.25;87.07;99768.81;4863101;29;20080;-71
2021/11/24 01:17:37;;;;;;;15.52;3.63;;;;;;;-8.14;87.05;99787.81;4868557;29;20061;-69
2021/11/24 01:20:03;;;;;;;13.63;3.28;;;;;;;-8.23;86.87;99769.63;4867404;29;20120;-70
2021/11/24 01:22:29;;;;;;;11.60;3.05;;;;;;;-8.21;87.32;99780.97;4850032;29;20053;-70
2021/11/24 01:24:55;;;;;;;13.10;3.08;;;;;;;-8.20;86.93;99782.69;4880687;29;20056;-71
2021/11/24 01:27:21;;;;;;;11.88;3.67;;;;;;;-8.24;87.33;99770.53;4880551;29;20061;-71
2021/11/24 01:29:46;;;;;;;10.48;2.88;;;;;;;-8.28;86.99;99769.75;4867636;29;20098;-68
2021/11/24 01:32:12;;;;;;;12.52;3.13;;;;;;;-8.26;87.47;99767.97;4867938;29;20474;-71
2021/11/24 01:34:39;;;;;;;15.48;4.03;;;;;;;-8.27;87.51;99765.34;4880256;29;20053;-71
2021/11/24 01:37:05;;;;;;;12.50;3.15;;;;;;;-8.33;87.89;99755.03;4863348;29;20112;-71
2021/11/24 01:39:31;;;;;;;11.07;3.30;;;;;;;-8.48;87.91;99739.59;4848742;29;20083;-70
2021/11/24 01:41:57;;;;;;;12.88;3.50;;;;;;;-8.59;88.24;99727.59;4848511;29;20093;-69
2021/11/24 01:44:27;;;;;;;10.48;3.10;;;;;;;-8.42;88.52;99760.47;4881235;29;20049;-71
2021/11/24 01:46:58;;;;;;;17.85;3.95;;;;;;;-8.53;88.75;99742.31;4863327;29;20057;-70
2021/11/24 01:49:24;;;;;;;;;;;;;;;-8.38;87.76;99759.50;4881334;29;20523;-69
2021/11/24 01:51:50;;;;;;;11.48;2.38;;;;;;;-8.45;88.03;99750.03;4880623;29;19987;-72
2021/11/24 01:54:17;;;;;;;10.90;2.97;;;;;;;-8.43;88.63;99758.75;4832447;29;20105;-72
2021/11/24 01:56:43;;;;;;;10.95;3.15;;;;;;;-8.42;88.27;99758.69;4846702;29;20063;-71
2021/11/24 01:59:10;;;;;;;13.90;3.00;;;;;;;-8.41;88.54;99762.19;4862855;29;20065;-71
2021/11/24 02:01:38;;;;;;;12.98;3.25;;;;;;;-8.43;88.85;99763.97;4878760;29;20519;-69
2021/11/24 02:04:04;;;;;;;12.23;3.05;;;;;;;-8.46;88.72;99759.66;4861524;29;20061;-70
2021/11/24 02:06:30;;;;;;;12.40;3.15;;;;;;;-8.51;88.27;99751.91;4847181;29;20100;-71
2021/11/24 02:08:55;;;;;;;9.98;3.58;;;;;;;-8.38;88.56;99756.88;4849504;29;20136;-70
2021/11/24 02:11:21;;;;;;;12.30;3.15;;;;;;;-8.46;88.28;99743.06;4866714;29;20057;-72
2021/11/24 02:13:47;;;;;;;11.85;3.70;;;;;;;-8.51;88.69;99738.78;4848070;29;20049;-70
2021/11/24 02:16:13;;;;;;;13.25;3.63;;;;;;;-8.48;88.53;99734.34;4862534;29;20444;-71
2021/11/24 02:18:39;;;;;;;10.45;3.05;;;;;;;-8.45;88.45;99744.78;4847389;29;20562;-70
2021/11/24 02:21:05;;;;;;;10.63;3.28;;;;;;;-8.52;88.32;99729.22;4879422;29;20113;-73
2021/11/24 02:23:30;;;;;;;10.95;2.88;;;;;;;-8.48;88.47;99744.84;4862690;29;20057;-70
2021/11/24 02:25:56;;;;;;;9.82;2.47;;;;;;;-8.55;88.52;99737.13;4862274;29;20499;-70
2021/11/24 02:28:22;;;;;;;8.27;2.40;;;;;;;-8.57;88.84;99733.66;4880767;29;20065;-71
2021/11/24 02:30:50;;;;;;;9.43;2.30;;;;;;;-8.63;88.83;99736.38;4864491;29;20057;-70
2021/11/24 02:33:17;;;;;;;14.57;3.00;;;;;;;-8.67;89.13;99729.47;4865298;29;20060;-70
2021/11/24 02:35:45;;;;;;;8.57;2.97;;;;;;;-8.82;88.74;99707.06;4867914;29;20111;-72
2021/11/24 02:38:14;;;;;;;10.35;2.25;;;;;;;-8.77;89.21;99720.09;4861832;29;20060;-71
2021/11/24 02:40:41;;;;;;;11.68;3.03;;;;;;;-8.79;88.94;99714.00;4861138;29;20068;-71
2021/11/24 02:43:09;;;;;;;10.25;3.45;;;;;;;-8.72;89.11;99730.47;4878950;29;20523;-70
2021/11/24 02:45:35;;;;;;;14.77;3.05;;;;;;;-8.74;89.18;99730.50;4846241;29;20097;-71
2021/11/24 02:48:02;;;;;;;14.50;4.47;;;;;;;-8.75;89.29;99726.16;4879174;29;20132;-71
2021/11/24 02:50:28;;;;;;;10.02;2.90;;;;;;;-8.80;89.40;99725.41;4861424;29;20060;-70
2021/11/24 02:52:54;;;;;;;11.10;3.78;;;;;;;-8.91;89.52;99698.53;4846188;29;20097;-71
2021/11/24 02:55:20;;;;;;;10.48;3.38;;;;;;;-8.86;89.24;99722.88;4846127;29;20137;-70
2021/11/24 02:57:49;;;;;;;11.90;3.78;;;;;;;-8.83;89.32;99728.06;4861706;29;20057;-70
2021/11/24 03:00:18;;;;;;;13.63;2.78;;;;;;;-8.86;89.70;99722.88;4832506;29;20059;-71
2021/11/24 03:02:45;;;;;;;10.52;3.05;;;;;;;-8.84;89.07;99723.72;4846385;29;20057;-71
2021/11/24 03:05:12;;;;;;;9.98;3.60;;;;;;;-8.91;89.24;99709.03;4861044;29;20563;-70
2021/11/24 03:07:38;;;;;;;13.98;3.83;;;;;;;-8.96;89.10;99705.59;4846049;29;20140;-71
2021/11/24 03:10:06;;;;;;;10.15;3.03;;;;;;;-8.92;89.37;99709.88;4861054;29;20084;-70
2021/11/24 03:12:32;;;;;;;11.35;3.10;;;;;;;-9.09;89.55;99687.50;4877297;29;20119;-71
2021/11/24 03:14:58;;;;;;;11.18;3.33;;;;;;;-9.06;89.75;99690.06;4862111;29;20060;-71
2021/11/24 03:17:24;;;;;;;13.15;3.67;;;;;;;-8.93;89.69;99714.25;4832331;29;20069;-71
2021/11/24 03:19:50;;;;;;;13.82;3.35;;;;;;;-8.95;89.47;99712.59;4864615;29;20061;-71
2021/11/24 03:22:22;;;;;;;12.38;3.22;;;;;;;-9.02;89.76;99696.97;4864359;29;20061;-71
2021/11/24 03:24:54;;;;;;;11.48;4.00;;;;;;;-8.93;89.83;99716.03;4847362;29;20723;-70
2021/11/24 03:27:30;;;;;;;11.88;3.25;;;;;;;-8.96;89.80;99705.59;4845835;29;20157;-71
2021/11/24 03:29:57;;;;;;;15.73;4.07;;;;;;;-9.00;90.20;99705.66;4845963;29;20071;-73
2021/11/24 03:32:25;;;;;;;11.02;3.72;;;;;;;-9.29;90.45;99666.91;4861618;29;20084;-71
2021/11/24 03:34:51;;;;;;;9.48;2.95;;;;;;;-9.03;90.47;99710.97;4860742;29;20065;-71
2021/11/24 03:37:18;;;;;;;12.90;3.83;;;;;;;-9.14;90.57;99681.50;4846484;29;20494;-70
2021/11/24 03:39:45;;;;;;;15.85;5.13;;;;;;;-9.05;90.79;99702.28;4845018;29;20069;-71
2021/11/24 03:42:11;;;;;;;11.23;3.42;;;;;;;-9.07;90.75;99706.66;4878006;29;20197;-72
2021/11/24 03:44:37;;;;;;;12.70;4.72;;;;;;;-9.07;90.86;99709.28;4830463;29;20089;-71
2021/11/24 03:47:04;;;;;;;12.55;3.72;;;;;;;-9.12;91.09;99705.88;4861019;29;20093;-72
2021/11/24 03:49:30;;;;;;;17.10;4.35;;;;;;;-9.11;91.11;99712.84;4831230;29;20140;-70
2021/11/24 03:51:56;;;;;;;14.82;4.80;;;;;;;-9.10;91.19;99708.50;4832787;29;20049;-71
2021/11/24 03:54:21;;;;;;;10.25;3.10;;;;;;;-9.13;91.19;99714.63;4861770;29;20541;-72
2021/11/24 03:56:47;;;;;;;13.23;4.28;;;;;;;-9.25;91.50;99686.03;4879101;29;20539;-72
2021/11/24 03:59:13;;;;;;;16.80;5.72;;;;;;;-9.17;91.45;99702.50;4861594;29;20121;-71
2021/11/24 04:01:39;;;;;;;17.13;5.28;;;;;;;-9.35;91.88;99680.13;4844654;29;20069;-69
2021/11/24 04:04:05;;;;;;;15.23;5.60;;;;;;;-9.11;91.41;99707.59;4846381;29;20050;-68
2021/11/24 04:06:32;;;;;;;16.08;5.35;;;;;;;-9.18;91.42;99695.50;4812373;29;20520;-69
2021/11/24 04:08:58;;;;;;;17.67;5.20;;;;;;;-9.27;91.88;99685.22;4842902;29;20117;-69
2021/11/24 04:11:25;;;;;;;14.25;4.53;;;;;;;-9.37;91.79;99670.56;4859809;29;20148;-68
2021/11/24 04:13:51;;;;;;;15.60;5.47;;;;;;;-9.15;91.75;99711.19;4839952;29;20084;-70
2021/11/24 04:16:17;;;;;;;14.80;4.85;;;;;;;-9.21;92.25;99700.84;4855205;29;20048;-74
2021/11/24 04:18:43;;;;;;;20.08;6.13;;;;;;;-9.39;92.36;99669.75;4854226;29;20112;-67
2021/11/24 04:21:17;;;;;;;19.35;5.63;;;;;;;-9.30;92.27;99687.88;4829174;29;20060;-69
2021/11/24 04:23:44;;;;;;;21.98;6.63;;;;;;;-9.17;92.41;99701.66;4854381;29;20119;-68
2021/11/24 04:26:11;;;;;;;21.23;7.00;;;;;;;-9.19;92.46;99688.56;4827698;29;20086;-70
2021/11/24 04:28:37;;;;;;;16.23;5.25;;;;;;;-9.21;92.54;99695.59;4813967;29;20059;-69
2021/11/24 04:31:06;;;;;;;12.98;4.93;;;;;;;-9.21;92.62;99708.69;4823540;29;20503;-68
2021/11/24 04:33:32;;;;;;;16.58;6.40;;;;;;;-9.28;92.85;99704.44;4841281;29;20057;-69
2021/11/24 04:35:58;;;;;;;18.63;3.83;;;;;;;-9.40;92.63;99678.47;4857653;29;20069;-68
2021/11/24 04:38:24;;;;;;;15.45;5.60;;;;;;;-9.25;92.99;99699.13;4825473;29;20053;-68
2021/11/24 04:40:50;;;;;;;15.57;4.82;;;;;;;-9.35;92.55;99693.22;4828939;29;20061;-69
2021/11/24 04:43:18;;;;;;;20.52;5.50;;;;;;;-9.30;93.08;99698.38;4829704;29;20065;-69
2021/11/24 04:45:44;;;;;;;16.52;5.78;;;;;;;-9.28;92.93;99688.75;4829496;29;20772;-69
2021/11/24 04:48:10;;;;;;;18.83;6.88;;;;;;;-9.23;92.86;99686.91;4814307;29;20101;-69
2021/11/24 04:50:36;;;;;;;20.70;6.75;;;;;;;-9.23;92.99;99686.91;4829405;29;20061;-70
2021/11/24 04:53:01;;;;;;;17.15;6.20;;;;;;;-9.34;93.03;99650.44;4814750;29;20144;-69
2021/11/24 04:55:28;;;;;;;18.00;6.45;;;;;;;-9.12;92.77;99679.72;4829652;29;20068;-69
2021/11/24 04:58:03;;;;;;;20.00;5.93;;;;;;;-9.07;92.62;99677.00;4814380;29;20065;-69
2021/11/24 05:00:30;;;;;;;17.00;4.85;;;;;;;-9.03;92.49;99674.31;4829337;29;20057;-69
2021/11/24 05:02:56;;;;;;;15.15;5.32;;;;;;;-9.09;92.47;99668.31;4844795;29;20061;-70
2021/11/24 05:05:27;;;;;;;19.13;5.60;;;;;;;-9.11;92.41;99660.47;4832096;29;20110;-68
2021/11/24 05:07:53;;;;;;;17.85;5.57;;;;;;;-9.06;92.17;99656.03;4850632;29;20534;-69
2021/11/24 05:10:19;;;;;;;18.17;6.80;;;;;;;-9.10;92.11;99648.28;4831068;29;20053;-69
2021/11/24 05:12:45;;;;;;;14.98;4.97;;;;;;;-9.01;92.03;99667.28;4830280;29;20058;-70
2021/11/24 05:15:18;;;;;;;14.73;5.22;;;;;;;-8.94;92.20;99661.94;4829296;29;20113;-69
2021/11/24 05:17:46;;;;;;;23.02;7.65;;;;;;;-8.89;92.05;99675.78;4845035;29;20277;-68
2021/11/24 05:20:12;;;;;;;17.83;6.38;;;;;;;-8.96;91.81;99653.22;4860118;29;20074;-67
2021/11/24 05:22:38;;;;;;;23.88;8.02;;;;;;;-8.83;91.79;99657.34;4846889;29;20053;-69
2021/11/24 05:25:04;;;;;;;16.40;5.47;;;;;;;-8.81;91.60;99655.53;4863564;29;20050;-70
2021/11/24 05:27:30;;;;;;;17.45;6.32;;;;;;;-8.74;91.97;99654.53;4831497;29;20076;-69
2021/11/24 05:29:56;;;;;;;22.70;7.18;;;;;;;-8.82;91.14;99640.72;4816700;29;20368;-70
2021/11/24 05:32:22;;;;;;;21.83;6.80;;;;;;;-8.75;91.41;99644.94;4864334;29;20068;-69
2021/11/24 05:34:48;;;;;;;18.83;7.82;;;;;;;-8.75;91.38;99637.09;4817197;29;20061;-69
2021/11/24 05:37:13;;;;;;;18.80;7.72;;;;;;;-8.83;91.61;99618.06;4865832;29;20052;-70
2021/11/24 05:39:39;;;;;;;21.58;8.48;;;;;;;-8.64;91.53;99636.88;4833363;29;20148;-70
2021/11/24 05:42:07;;;;;;;20.30;8.23;;;;;;;-8.58;91.15;99650.72;4819253;29;20530;-69
2021/11/24 05:44:36;;;;;;;18.83;6.35;;;;;;;-8.52;91.24;99633.97;4830629;29;20397;-69
2021/11/24 05:47:08;;;;;;;19.75;7.40;;;;;;;-8.46;91.36;99646.09;4845207;29;20054;-69
2021/11/24 05:49:36;;;;;;;20.05;6.90;;;;;;;-8.78;90.92;99572.50;4830589;29;20065;-68
2021/11/24 05:52:03;;;;;;;17.63;6.60;;;;;;;-8.38;91.12;99623.19;4860333;29;20057;-69
2021/11/24 05:54:29;;;;;;;20.48;7.75;;;;;;;-8.37;90.88;99611.81;4829739;29;20512;-67
2021/11/24 05:56:55;;;;;;;15.80;6.72;;;;;;;-8.29;90.79;99613.34;4831840;29;20059;-68
2021/11/24 05:59:21;;;;;;;30.10;8.18;;;;;;;-8.06;90.56;99607.56;4831530;29;20427;-69
2021/11/24 06:01:47;;;;;;;17.50;5.90;;;;;;;-7.82;89.11;99579.88;4847613;29;20571;-68
2021/11/24 06:04:13;;;;;;;16.95;7.93;;;;;;;-7.46;86.84;99615.69;4830726;29;20113;-69
2021/11/24 06:06:39;;;;;;;17.23;6.43;;;;;;;-6.75;84.16;99614.66;4813713;29;20120;-68
2021/11/24 06:09:05;;;;;;;15.77;6.50;;;;;;;-6.29;82.95;99622.00;4849838;29;20161;-69
2021/11/24 06:11:32;;;;;;;20.75;7.05;;;;;;;-7.00;84.01;99611.84;4864348;29;20054;-69
2021/11/24 06:13:58;;;;;;;19.58;7.18;;;;;;;-7.44;85.83;99592.91;4845724;29;20053;-70
2021/11/24 06:16:24;;;;;;;19.42;6.68;;;;;;;-7.48;87.37;99609.66;4830362;29;20073;-69
2021/11/24 06:18:50;;;;;;;21.52;6.68;;;;;;;-7.45;87.59;99601.69;4862790;29;20058;-70
2021/11/24 06:21:19;;;;;;;19.30;7.72;;;;;;;-7.53;88.22;99597.50;4846590;29;20057;-69
2021/11/24 06:23:46;;;;;;;22.60;7.10;;;;;;;-7.70;88.13;99560.31;4817743;29;20056;-69
2021/11/24 06:26:12;;;;;;;20.60;7.47;;;;;;;-7.44;87.64;99595.53;4817956;29;20061;-69
2021/11/24 06:28:38;;;;;;;17.70;6.85;;;;;;;-7.42;88.16;99593.72;4847449;29;20084;-70
2021/11/24 06:31:04;;;;;;;20.10;8.35;;;;;;;-7.38;88.24;99584.88;4815774;29;20069;-70
2021/11/24 06:33:31;;;;;;;18.50;6.78;;;;;;;-7.31;88.05;99586.44;4846792;29;20061;-69
2021/11/24 06:35:57;;;;;;;17.98;6.82;;;;;;;-7.43;87.96;99550.00;4853696;29;20057;-71
2021/11/24 06:38:23;;;;;;;17.92;6.43;;;;;;;-7.33;87.86;99540.97;4846430;29;20061;-70
2021/11/24 06:40:49;;;;;;;20.63;6.63;;;;;;;-7.13;88.11;99574.53;4844913;29;20101;-70
2021/11/24 06:43:15;;;;;;;22.13;8.02;;;;;;;-7.06;88.08;99570.84;4846592;29;20121;-69
2021/11/24 06:45:42;;;;;;;18.05;6.30;;;;;;;-6.97;87.74;99569.72;4828397;29;20049;-70
2021/11/24 06:48:08;;;;;;;13.88;5.55;;;;;;;-6.93;86.93;99561.72;4844807;29;20403;-70
2021/11/24 06:50:35;;;;;;;21.00;6.07;;;;;;;-6.93;86.90;99560.84;4829468;29;20141;-69
2021/11/24 06:53:01;;;;;;;18.95;5.72;;;;;;;-6.87;86.73;99550.19;4829527;29;20058;-69
2021/11/24 06:55:27;;;;;;;17.38;6.15;;;;;;;-6.88;86.29;99533.53;4828446;29;20061;-69
2021/11/24 06:57:53;;;;;;;17.88;8.40;;;;;;;-6.92;86.86;99533.66;4842715;29;20117;-69
2021/11/24 07:00:19;;;;;;;17.88;7.03;;;;;;;-6.74;86.07;99538.38;4828656;29;20464;-68
2021/11/24 07:02:45;;;;;;;16.10;5.13;;;;;;;-6.66;85.92;99539.00;4814871;29;20086;-69
2021/11/24 07:05:12;;;;;;;16.13;7.35;;;;;;;-6.70;85.80;99537.38;4843800;29;20045;-68
2021/11/24 07:07:38;;;;;;;15.90;6.45;;;;;;;-6.65;86.09;99532.00;4828197;29;20126;-69
2021/11/24 07:10:05;;;;;;;19.08;6.70;;;;;;;-6.60;85.38;99532.69;4843132;29;20137;-69
2021/11/24 07:12:31;;;;;;;19.55;7.30;;;;;;;-6.60;85.85;99533.56;4860012;29;20140;-70
2021/11/24 07:14:57;;;;;;;19.55;7.25;;;;;;;-6.64;85.23;99536.34;4831261;29;20520;-69
2021/11/24 07:17:24;;;;;;;15.30;5.88;;;;;;;-6.57;85.14;99538.72;4818879;29;20049;-69
2021/11/24 07:19:50;;;;;;;16.88;6.53;;;;;;;-6.52;85.47;99540.34;4848136;29;20081;-70
2021/11/24 07:22:16;;;;;;;16.90;5.72;;;;;;;-6.48;85.34;99524.41;4842601;29;20631;-70
2021/11/24 07:24:42;;;;;;;20.77;7.00;;;;;;;-6.44;84.40;99527.81;4798912;29;20064;-69
2021/11/24 07:27:07;;;;;;;15.63;5.20;;;;;;;-6.35;84.30;99532.81;4844568;29;20060;-69
2021/11/24 07:29:33;;;;;;;15.60;5.88;;;;;;;-6.27;85.01;99536.03;4829171;29;20057;-69
2021/11/24 07:31:59;;;;;;;16.33;5.30;;;;;;;-6.28;84.42;99534.31;4813775;29;20372;-69
2021/11/24 07:34:25;;;;;;;18.58;6.20;;;;;;;-6.43;83.96;99492.75;4851636;29;20057;-69
2021/11/24 07:36:51;;;;;;;15.75;5.55;;;;;;;-6.17;83.97;99524.31;4844552;29;20148;-69
2021/11/24 07:39:17;;;;;;;13.70;5.53;;;;;;;-6.07;83.47;99532.75;4853231;29;20140;-69
2021/11/24 07:41:43;;;;;;;20.35;5.82;;;;;;;-5.99;83.19;99529.91;4814017;29;20101;-69
2021/11/24 07:44:09;;;;;;;15.30;5.40;;;;;;;-6.08;82.75;99517.88;4814828;29;20049;-69
2021/11/24 07:46:35;;;;;;;15.38;4.63;;;;;;;-6.02;82.51;99514.19;4845938;29;20148;-69
2021/11/24 07:49:01;;;;;;;13.70;4.65;;;;;;;-5.95;82.30;99507.81;4843487;29;20140;-69
2021/11/24 07:51:27;;;;;;;13.27;4.32;;;;;;;-5.87;82.39;99511.00;4831320;29;20057;-69
2021/11/24 07:53:53;;;;;;;20.02;5.18;;;;;;;-5.76;81.50;99500.97;4818485;29;20061;-69
2021/11/24 07:56:20;;;;;;;14.30;5.50;;;;;;;-5.69;80.95;99506.91;4801782;29;20148;-70
2021/11/24 07:58:46;;;;;;;14.93;3.88;;;;;;;-5.67;80.72;99511.16;4847716;29;20057;-69
2021/11/24 08:01:13;;;;;;;12.77;4.53;;;;;;;-5.64;81.04;99504.94;4815480;29;20082;-68
2021/11/24 08:03:39;;;;;;;15.10;4.95;;;;;;;-5.75;80.86;99486.91;4846221;29;20136;-70
2021/11/24 08:06:05;;;;;;;15.10;5.00;;;;;;;-5.60;80.61;99491.63;4801254;29;20455;-69
2021/11/24 08:08:31;;;;;;;15.02;3.55;;;;;;;-5.53;80.07;99489.63;4828316;29;20092;-69
2021/11/24 08:10:58;;;;;;;18.35;4.90;;;;;;;-5.61;80.46;99473.25;4843160;29;20097;-70
2021/11/24 08:13:24;;;;;;;13.80;4.25;;;;;;;-5.44;79.86;99489.31;4827884;29;20436;-69
2021/11/24 08:15:50;;;;;;;26.52;5.53;;;;;;;-5.65;80.30;99434.78;4832191;29;20143;-69
2021/11/24 08:18:16;;;;;;;16.25;5.15;;;;;;;-5.68;79.70;99429.63;4848982;29;20067;-70
2021/11/24 08:20:43;;;;;;;15.75;6.13;;;;;;;-5.32;80.15;99469.56;4832581;29;20128;-69
2021/11/24 08:23:09;;;;;;;16.15;4.95;;;;;;;-5.36;80.14;99465.31;4818403;29;20058;-69
2021/11/24 08:25:35;;;;;;;13.18;5.03;;;;;;;-5.66;79.35;99397.06;4816649;29;20135;-70
2021/11/24 08:28:01;;;;;;;23.10;5.13;;;;;;;-5.19;79.40;99459.41;4831873;29;20061;-70
2021/11/24 08:30:27;;;;;;;13.25;4.18;;;;;;;-5.20;78.64;99434.00;4817875;29;20110;-70
2021/11/24 08:32:53;;;;;;;11.50;3.85;;;;;;;-4.95;78.18;99455.84;4817916;29;20085;-69
2021/11/24 08:35:20;;;;;;;19.70;5.20;;;;;;;-4.89;78.09;99460.03;4830672;29;20049;-70
2021/11/24 08:37:47;;;;;;;15.65;4.38;;;;;;;-4.90;77.65;99451.28;4846447;29;20073;-69
2021/11/24 08:40:13;;;;;;;14.00;3.85;;;;;;;-4.81;77.68;99443.94;4831898;29;20190;-70
2021/11/24 08:42:40;;;;;;;15.10;4.88;;;;;;;-4.80;77.33;99445.63;4831248;29;20053;-70
2021/11/24 08:45:08;;;;;;;19.10;4.63;;;;;;;-4.91;77.81;99427.59;4830623;29;20452;-70
2021/11/24 08:47:34;;;;;;;17.08;3.53;;;;;;;-4.80;77.36;99441.22;4815516;29;20128;-69
2021/11/24 08:50:00;;;;;;;13.43;3.28;;;;;;;-4.75;77.20;99431.38;4800560;29;20080;-70
2021/11/24 08:52:26;;;;;;;17.35;5.25;;;;;;;-4.76;77.64;99447.22;4846707;29;20058;-69
2021/11/24 08:54:52;;;;;;;18.17;5.38;;;;;;;-4.76;77.90;99427.00;4845344;29;20057;-69
2021/11/24 08:57:18;;;;;;;13.75;3.70;;;;;;;-4.71;77.31;99440.88;4834748;29;20053;-70
2021/11/24 08:59:45;;;;;;;15.05;4.38;;;;;;;-4.73;77.93;99411.06;4823713;29;20065;-70
2021/11/24 09:02:10;;;;;;;15.07;4.20;;;;;;;-4.76;77.78;99411.16;4851000;29;20053;-70
2021/11/24 09:04:36;;;;;;;15.27;4.57;;;;;;;-4.65;78.26;99416.88;4816523;29;20137;-70
2021/11/24 09:07:02;;;;;;;13.60;4.63;;;;;;;-4.67;77.71;99399.41;4865440;29;20064;-70
2021/11/24 09:09:28;;;;;;;23.00;4.85;;;;;;;-4.68;78.40;99403.84;4848196;29;20065;-71
2021/11/24 09:11:54;;;;;;;25.05;4.43;;;;;;;-4.72;78.18;99402.22;4830181;29;20054;-71
2021/11/24 09:14:20;;;;;;;15.45;4.60;;;;;;;-4.72;78.65;99391.66;4830195;29;20053;-70
2021/11/24 09:16:46;;;;;;;13.43;4.53;;;;;;;-4.70;78.66;99376.66;4834583;29;20053;-69
2021/11/24 09:19:12;;;;;;;18.50;5.20;;;;;;;-4.74;78.84;99371.56;4832803;29;20065;-69
2021/11/24 09:21:38;;;;;;;13.00;3.58;;;;;;;-4.55;78.58;99392.78;4831806;29;20050;-69
2021/11/24 09:24:11;;;;;;;14.07;4.95;;;;;;;-4.57;78.66;99392.84;4830980;29;20065;-70
2021/11/24 09:26:44;;;;;;;20.83;4.72;;;;;;;-4.48;78.50;99388.97;4860782;29;20065;-70
2021/11/24 09:29:12;;;;;;;19.40;4.80;;;;;;;-4.65;79.08;99366.75;4830973;29;20050;-70
2021/11/24 09:31:39;;;;;;;15.32;4.60;;;;;;;-4.63;78.54;99359.66;4832034;29;20167;-71
2021/11/24 09:34:05;;;;;;;18.30;5.07;;;;;;;-4.50;78.96;99386.38;4831920;29;20065;-70
2021/11/24 09:36:31;;;;;;;14.25;5.15;;;;;;;-4.53;78.79;99365.41;4815081;29;20057;-69
2021/11/24 09:38:57;;;;;;;17.80;5.22;;;;;;;-4.51;79.00;99368.84;4832938;29;20140;-69
2021/11/24 09:41:25;;;;;;;18.67;5.05;;;;;;;-4.58;79.05;99350.69;4830708;29;20139;-69
2021/11/24 09:43:55;;;;;;;15.52;5.70;;;;;;;-4.44;79.34;99356.25;4845093;29;20497;-69
2021/11/24 09:46:22;;;;;;;15.10;4.68;;;;;;;-4.47;79.04;99343.19;4844341;29;20061;-70
2021/11/24 09:48:50;;;;;;;12.70;4.88;;;;;;;-4.51;79.34;99325.78;4829089;29;20439;-70
2021/11/24 09:51:17;;;;;;;13.60;5.18;;;;;;;-4.29;79.35;99357.38;4829184;29;20129;-69
2021/11/24 09:53:44;;;;;;;12.70;4.15;;;;;;;-4.56;78.98;99296.13;4828897;29;20520;-69
2021/11/24 09:56:11;;;;;;;18.35;5.88;;;;;;;-4.27;79.01;99318.59;4829546;29;20053;-70
2021/11/24 09:58:37;;;;;;;14.60;5.20;;;;;;;-4.29;79.17;99320.44;4815627;29;20114;-70
2021/11/24 10:01:02;;;;;;;14.02;5.60;;;;;;;-4.53;79.02;99274.84;4847165;29;20053;-70
2021/11/24 10:03:30;;;;;;;14.55;4.78;;;;;;;-4.29;79.33;99313.38;4848012;29;20057;-70
2021/11/24 10:05:56;;;;;;;15.15;3.70;;;;;;;-4.40;78.96;99281.31;4845062;29;20658;-70
2021/11/24 10:08:22;;;;;;;12.88;4.80;;;;;;;-4.29;79.60;99300.19;4844906;29;20132;-70
2021/11/24 10:10:48;;;;;;;15.23;4.97;;;;;;;-4.31;79.85;99294.13;4846589;29;20436;-70
2021/11/24 10:13:14;;;;;;;14.52;4.78;;;;;;;-4.22;80.08;99293.72;4845039;29;20058;-70
2021/11/24 10:15:46;;;;;;;10.48;4.70;;;;;;;-4.22;80.21;99296.34;4829722;29;20069;-69
2021/11/24 10:18:18;;;;;;;13.73;5.07;;;;;;;-4.52;79.85;99234.41;4844109;29;20053;-70
2021/11/24 10:20:46;;;;;;;16.40;5.95;;;;;;;-4.18;80.50;99275.97;4844448;29;20648;-70
2021/11/24 10:23:40;;;;;;;16.27;5.60;;;;;;;-4.21;80.80;99276.09;4830212;29;20069;-70
2021/11/24 10:26:17;;;;;;;13.20;4.30;;;;;;;-4.27;81.36;99245.56;4812515;29;20057;-70
2021/11/24 10:29:10;;;;;;;11.57;4.03;;;;;;;-4.05;81.03;99255.16;4862430;29;20435;-70
2021/11/24 10:31:43;;;;;;;17.45;5.57;;;;;;;-4.07;81.46;99257.84;4805147;29;20064;-70
2021/11/24 10:34:24;;;;;;;13.55;4.25;;;;;;;-4.02;81.56;99255.00;4845761;29;20522;-70
2021/11/24 10:36:51;;;;;;;17.92;4.75;;;;;;;-4.13;81.23;99232.63;4799564;29;20053;-70
2021/11/24 10:39:18;;;;;;;15.52;5.97;;;;;;;-4.00;81.39;99242.59;4844440;29;20148;-69
2021/11/24 10:41:44;;;;;;;11.60;4.15;;;;;;;-3.99;81.23;99239.88;4843687;29;20057;-69
2021/11/24 10:44:09;;;;;;;12.88;4.93;;;;;;;-4.14;81.08;99204.50;4828973;29;20140;-69
2021/11/24 10:46:36;;;;;;;13.43;5.45;;;;;;;-3.88;81.21;99228.81;4828608;29;20161;-69
2021/11/24 10:49:06;;;;;;;10.52;3.92;;;;;;;-3.93;81.57;99207.94;4831026;29;20053;-69
2021/11/24 10:51:41;;;;;;;14.52;6.35;;;;;;;-3.83;81.53;99218.94;4844961;29;20059;-70
2021/11/24 10:54:18;;;;;;;12.65;4.88;;;;;;;-3.80;81.57;99208.22;4860517;29;20093;-69
2021/11/24 10:57:08;;;;;;;10.65;4.20;;;;;;;-3.86;81.85;99202.38;4844450;29;20062;-69
2021/11/24 10:59:39;;;;;;;14.02;5.47;;;;;;;-3.90;81.56;99188.47;4862103;29;20057;-70
2021/11/24 11:02:17;;;;;;;12.90;4.63;;;;;;;-3.74;81.75;99197.34;4843640;29;20148;-70
2021/11/24 11:05:07;;;;;;;14.32;5.00;;;;;;;-3.83;81.66;99176.69;4831720;29;20057;-69
2021/11/24 11:07:37;;;;;;;12.63;5.47;;;;;;;-3.72;81.86;99190.22;4802628;29;20519;-69
2021/11/24 11:10:07;;;;;;;12.73;4.15;;;;;;;-3.75;81.47;99168.38;4847461;29;20057;-70
2021/11/24 11:12:33;;;;;;;;;;;;;;;-3.64;81.78;99177.50;4843726;29;20065;-70
2021/11/24 11:15:13;;;;;;;17.98;5.25;;;;;;;-3.84;82.19;99135.34;4830219;29;19920;-70
2021/11/24 11:17:59;;;;;;;17.95;5.22;;;;;;;-3.64;82.14;99166.09;4861021;29;20053;-69
2021/11/24 11:20:28;;;;;;;11.98;4.55;;;;;;;-3.78;82.57;99126.28;4829228;29;20486;-70
2021/11/24 11:23:13;;;;;;;12.50;3.85;;;;;;;-3.64;82.78;99150.25;4860743;29;20065;-70
2021/11/24 11:25:51;;;;;;;15.07;4.70;;;;;;;-3.64;82.01;99147.59;4843877;29;20431;-70
2021/11/24 11:28:19;;;;;;;10.98;4.00;;;;;;;-3.65;82.69;99144.09;4828949;29;20527;-70